Madelia, Minnesota
Current Conditions -  °F | °C
As of 12:55 PM on Friday 31 Oct 2014 (Local Time) from KJYG Reporting Station
Clear Clear  
Wind Chill: 31°   Ceiling: Unl
Heat Index: 37°   Visibility: 10mi
Dew Point: 18°   Wind: 9mph
Humidity: 45%   Direction: 320°NW
Pressure: 30.56"   Gusts: NA
Location:  44.05°N, 94.42°W
Report Text: KJYG 311755Z AUTO 32008KT 10SM CLR 03/M08 A3056 RMK AO2
Loading
Personal Weather Stations






























Interactive Weather Map
Tropical Storm Tracking
New forecast layout! Learn more

10-Day Weather Forecast

Advertisements
Track Severe Weather on mobile